sensor_id;sensor_type;location;lat;lon;timestamp;pressure;altitude;pressure_sealevel;temperature
35960;BMP280;22043;50.970;7.192;2023-03-25T00:00:56;98100.97;;;10.55
35960;BMP280;22043;50.970;7.192;2023-03-25T00:03:26;98107.19;;;10.56
35960;BMP280;22043;50.970;7.192;2023-03-25T00:05:53;98112.50;;;10.59
35960;BMP280;22043;50.970;7.192;2023-03-25T00:08:19;98109.38;;;10.61
35960;BMP280;22043;50.970;7.192;2023-03-25T00:10:45;98112.50;;;10.59
35960;BMP280;22043;50.970;7.192;2023-03-25T00:13:10;98115.69;;;10.58
35960;BMP280;22043;50.970;7.192;2023-03-25T00:15:42;98131.38;;;10.67
35960;BMP280;22043;50.970;7.192;2023-03-25T00:18:10;98122.56;;;10.62
35960;BMP280;22043;50.970;7.192;2023-03-25T00:20:38;98112.09;;;10.61
35960;BMP280;22043;50.970;7.192;2023-03-25T00:23:11;98117.88;;;10.63
35960;BMP280;22043;50.970;7.192;2023-03-25T00:25:37;98105.78;;;10.64
35960;BMP280;22043;50.970;7.192;2023-03-25T00:28:03;98111.00;;;10.58
35960;BMP280;22043;50.970;7.192;2023-03-25T00:30:28;98107.63;;;10.54
35960;BMP280;22043;50.970;7.192;2023-03-25T00:32:54;98116.13;;;10.56
35960;BMP280;22043;50.970;7.192;2023-03-25T00:35:21;98118.41;;;10.58
35960;BMP280;22043;50.970;7.192;2023-03-25T00:37:50;98100.66;;;10.53
35960;BMP280;22043;50.970;7.192;2023-03-25T00:40:25;98092.47;;;10.53
35960;BMP280;22043;50.970;7.192;2023-03-25T00:42:53;98100.53;;;10.57
35960;BMP280;22043;50.970;7.192;2023-03-25T00:45:19;98094.75;;;10.55
35960;BMP280;22043;50.970;7.192;2023-03-25T00:47:44;98102.06;;;10.58
35960;BMP280;22043;50.970;7.192;2023-03-25T00:50:11;98103.13;;;10.60
35960;BMP280;22043;50.970;7.192;2023-03-25T00:52:37;98103.78;;;10.52
35960;BMP280;22043;50.970;7.192;2023-03-25T00:55:04;98107.72;;;10.51
35960;BMP280;22043;50.970;7.192;2023-03-25T00:57:30;98105.75;;;10.51
35960;BMP280;22043;50.970;7.192;2023-03-25T00:59:56;98111.75;;;10.59
35960;BMP280;22043;50.970;7.192;2023-03-25T01:02:22;98084.19;;;10.44
35960;BMP280;22043;50.970;7.192;2023-03-25T01:04:48;98097.94;;;10.53
35960;BMP280;22043;50.970;7.192;2023-03-25T01:07:18;98091.16;;;10.45
35960;BMP280;22043;50.970;7.192;2023-03-25T01:09:45;98077.44;;;10.49
35960;BMP280;22043;50.970;7.192;2023-03-25T01:12:12;98091.59;;;10.56
35960;BMP280;22043;50.970;7.192;2023-03-25T01:14:39;98087.88;;;10.50
35960;BMP280;22043;50.970;7.192;2023-03-25T01:17:07;98086.38;;;10.49
35960;BMP280;22043;50.970;7.192;2023-03-25T01:19:32;98082.13;;;10.48
35960;BMP280;22043;50.970;7.192;2023-03-25T01:21:58;98085.72;;;10.45
35960;BMP280;22043;50.970;7.192;2023-03-25T01:24:25;98083.53;;;10.40
35960;BMP280;22043;50.970;7.192;2023-03-25T01:26:50;98078.97;;;10.37
35960;BMP280;22043;50.970;7.192;2023-03-25T01:29:18;98081.69;;;10.37
35960;BMP280;22043;50.970;7.192;2023-03-25T01:31:43;98098.59;;;10.45
35960;BMP280;22043;50.970;7.192;2023-03-25T01:34:09;98079.72;;;10.38
35960;BMP280;22043;50.970;7.192;2023-03-25T01:36:35;98077.31;;;10.40
35960;BMP280;22043;50.970;7.192;2023-03-25T01:39:05;98074.72;;;10.36
35960;BMP280;22043;50.970;7.192;2023-03-25T01:41:32;98069.59;;;10.38
35960;BMP280;22043;50.970;7.192;2023-03-25T01:45:09;98090.72;;;10.47
35960;BMP280;22043;50.970;7.192;2023-03-25T01:46:55;98077.00;;;10.38
35960;BMP280;22043;50.970;7.192;2023-03-25T01:49:31;98076.88;;;10.41
35960;BMP280;22043;50.970;7.192;2023-03-25T01:52:21;98066.88;;;10.38
35960;BMP280;22043;50.970;7.192;2023-03-25T01:54:49;98058.91;;;10.31
35960;BMP280;22043;50.970;7.192;2023-03-25T01:57:17;98069.03;;;10.43
35960;BMP280;22043;50.970;7.192;2023-03-25T01:59:45;98075.69;;;10.42
35960;BMP280;22043;50.970;7.192;2023-03-25T02:02:11;98067.09;;;10.44
35960;BMP280;22043;50.970;7.192;2023-03-25T02:07:44;98060.22;;;10.39
35960;BMP280;22043;50.970;7.192;2023-03-25T02:10:13;98061.41;;;10.38
35960;BMP280;22043;50.970;7.192;2023-03-25T02:12:38;98068.38;;;10.39
35960;BMP280;22043;50.970;7.192;2023-03-25T02:15:06;98082.88;;;10.36
35960;BMP280;22043;50.970;7.192;2023-03-25T02:17:58;98069.03;;;10.30
35960;BMP280;22043;50.970;7.192;2023-03-25T02:20:40;98077.84;;;10.22
35960;BMP280;22043;50.970;7.192;2023-03-25T02:28:54;98078.59;;;9.80
35960;BMP280;22043;50.970;7.192;2023-03-25T02:39:56;98074.38;;;9.50
35960;BMP280;22043;50.970;7.192;2023-03-25T02:42:40;98071.50;;;9.41
35960;BMP280;22043;50.970;7.192;2023-03-25T02:48:01;98063.09;;;9.36
35960;BMP280;22043;50.970;7.192;2023-03-25T02:50:32;98055.69;;;9.36
35960;BMP280;22043;50.970;7.192;2023-03-25T02:53:03;98069.72;;;9.35
35960;BMP280;22043;50.970;7.192;2023-03-25T02:55:31;98071.00;;;9.30
35960;BMP280;22043;50.970;7.192;2023-03-25T02:57:58;98072.72;;;9.24
35960;BMP280;22043;50.970;7.192;2023-03-25T03:00:28;98064.47;;;9.28
35960;BMP280;22043;50.970;7.192;2023-03-25T03:02:56;98072.38;;;9.22
35960;BMP280;22043;50.970;7.192;2023-03-25T03:05:31;98059.63;;;9.19
35960;BMP280;22043;50.970;7.192;2023-03-25T03:08:22;98058.97;;;9.15
35960;BMP280;22043;50.970;7.192;2023-03-25T03:13:51;98061.69;;;9.15
35960;BMP280;22043;50.970;7.192;2023-03-25T03:21:54;98057.00;;;9.15
35960;BMP280;22043;50.970;7.192;2023-03-25T03:24:28;98067.78;;;9.19
35960;BMP280;22043;50.970;7.192;2023-03-25T03:29:27;98064.31;;;9.18
35960;BMP280;22043;50.970;7.192;2023-03-25T03:32:06;98066.59;;;9.20
35960;BMP280;22043;50.970;7.192;2023-03-25T03:34:39;98062.28;;;9.22
35960;BMP280;22043;50.970;7.192;2023-03-25T03:37:12;98064.25;;;9.22
35960;BMP280;22043;50.970;7.192;2023-03-25T03:39:40;98068.88;;;9.21
35960;BMP280;22043;50.970;7.192;2023-03-25T03:42:16;98071.19;;;9.23
35960;BMP280;22043;50.970;7.192;2023-03-25T03:44:46;98067.28;;;9.24
35960;BMP280;22043;50.970;7.192;2023-03-25T03:47:20;98064.09;;;9.25
35960;BMP280;22043;50.970;7.192;2023-03-25T03:49:53;98068.78;;;9.25
35960;BMP280;22043;50.970;7.192;2023-03-25T03:52:33;98070.34;;;9.26
35960;BMP280;22043;50.970;7.192;2023-03-25T03:55:18;98069.91;;;9.28
35960;BMP280;22043;50.970;7.192;2023-03-25T03:57:55;98076.84;;;9.29
35960;BMP280;22043;50.970;7.192;2023-03-25T04:00:29;98077.63;;;9.29
35960;BMP280;22043;50.970;7.192;2023-03-25T04:03:03;98084.59;;;9.30
35960;BMP280;22043;50.970;7.192;2023-03-25T04:05:30;98085.78;;;9.29
35960;BMP280;22043;50.970;7.192;2023-03-25T04:08:01;98082.28;;;9.29
35960;BMP280;22043;50.970;7.192;2023-03-25T04:13:01;98078.50;;;9.26
35960;BMP280;22043;50.970;7.192;2023-03-25T04:15:28;98076.94;;;9.25
35960;BMP280;22043;50.970;7.192;2023-03-25T04:17:54;98071.97;;;9.23
35960;BMP280;22043;50.970;7.192;2023-03-25T04:20:22;98080.13;;;9.23
35960;BMP280;22043;50.970;7.192;2023-03-25T04:22:52;98087.50;;;9.23
35960;BMP280;22043;50.970;7.192;2023-03-25T04:25:19;98087.72;;;9.29
35960;BMP280;22043;50.970;7.192;2023-03-25T04:27:49;98089.69;;;9.28
35960;BMP280;22043;50.970;7.192;2023-03-25T04:30:18;98082.38;;;9.25
35960;BMP280;22043;50.970;7.192;2023-03-25T04:32:45;98090.88;;;9.27
35960;BMP280;22043;50.970;7.192;2023-03-25T04:35:13;98082.28;;;9.29
35960;BMP280;22043;50.970;7.192;2023-03-25T04:37:38;98092.41;;;9.28
35960;BMP280;22043;50.970;7.192;2023-03-25T04:40:06;98085.09;;;9.25
35960;BMP280;22043;50.970;7.192;2023-03-25T04:42:33;98091.28;;;9.25
35960;BMP280;22043;50.970;7.192;2023-03-25T04:45:02;98088.94;;;9.28
35960;BMP280;22043;50.970;7.192;2023-03-25T04:47:27;98081.59;;;9.24
35960;BMP280;22043;50.970;7.192;2023-03-25T04:49:53;98082.38;;;9.25
35960;BMP280;22043;50.970;7.192;2023-03-25T04:52:18;98077.41;;;9.23
35960;BMP280;22043;50.970;7.192;2023-03-25T04:54:43;98080.13;;;9.23
35960;BMP280;22043;50.970;7.192;2023-03-25T04:57:09;98076.53;;;9.27
35960;BMP280;22043;50.970;7.192;2023-03-25T04:59:35;98068.13;;;9.21
35960;BMP280;22043;50.970;7.192;2023-03-25T05:02:02;98077.69;;;9.25
35960;BMP280;22043;50.970;7.192;2023-03-25T05:04:30;98073.06;;;9.26
35960;BMP280;22043;50.970;7.192;2023-03-25T05:06:56;98080.00;;;9.27
35960;BMP280;22043;50.970;7.192;2023-03-25T05:09:21;98070.66;;;9.28
35960;BMP280;22043;50.970;7.192;2023-03-25T05:11:48;98074.50;;;9.31
35960;BMP280;22043;50.970;7.192;2023-03-25T05:14:16;98071.00;;;9.30
35960;BMP280;22043;50.970;7.192;2023-03-25T05:16:42;98072.63;;;9.28
35960;BMP280;22043;50.970;7.192;2023-03-25T05:19:08;98079.50;;;9.32
35960;BMP280;22043;50.970;7.192;2023-03-25T05:21:36;98077.22;;;9.31
35960;BMP280;22043;50.970;7.192;2023-03-25T05:24:07;98076.34;;;9.34
35960;BMP280;22043;50.970;7.192;2023-03-25T05:26:35;98077.97;;;9.31
35960;BMP280;22043;50.970;7.192;2023-03-25T05:29:11;98077.97;;;9.31
35960;BMP280;22043;50.970;7.192;2023-03-25T05:31:41;98081.22;;;9.26
35960;BMP280;22043;50.970;7.192;2023-03-25T05:34:09;98079.66;;;9.25
35960;BMP280;22043;50.970;7.192;2023-03-25T05:36:35;98078.50;;;9.26
35960;BMP280;22043;50.970;7.192;2023-03-25T05:39:00;98090.88;;;9.27
35960;BMP280;22043;50.970;7.192;2023-03-25T05:41:27;98080.78;;;9.28
35960;BMP280;22043;50.970;7.192;2023-03-25T05:44:13;98077.69;;;9.25
35960;BMP280;22043;50.970;7.192;2023-03-25T05:46:38;98082.72;;;9.27
35960;BMP280;22043;50.970;7.192;2023-03-25T05:49:04;98079.81;;;9.34
35960;BMP280;22043;50.970;7.192;2023-03-25T05:51:32;98076.44;;;9.30
35960;BMP280;22043;50.970;7.192;2023-03-25T05:53:58;98087.66;;;9.32
35960;BMP280;22043;50.970;7.192;2023-03-25T05:56:23;98080.16;;;9.36
35960;BMP280;22043;50.970;7.192;2023-03-25T05:58:51;98087.13;;;9.37
35960;BMP280;22043;50.970;7.192;2023-03-25T06:01:18;98076.25;;;9.37
35960;BMP280;22043;50.970;7.192;2023-03-25T06:03:45;98085.25;;;9.34
35960;BMP280;22043;50.970;7.192;2023-03-25T06:06:11;98085.59;;;9.36
35960;BMP280;22043;50.970;7.192;2023-03-25T06:08:47;98081.69;;;9.37
35960;BMP280;22043;50.970;7.192;2023-03-25T06:11:14;98084.75;;;9.39
35960;BMP280;22043;50.970;7.192;2023-03-25T06:13:40;98087.06;;;9.41
35960;BMP280;22043;50.970;7.192;2023-03-25T06:16:07;98088.16;;;9.43
35960;BMP280;22043;50.970;7.192;2023-03-25T06:18:37;98080.31;;;9.45
35960;BMP280;22043;50.970;7.192;2023-03-25T06:21:03;98073.69;;;9.46
35960;BMP280;22043;50.970;7.192;2023-03-25T06:23:30;98082.94;;;9.49
35960;BMP280;22043;50.970;7.192;2023-03-25T06:25:59;98084.47;;;9.50
35960;BMP280;22043;50.970;7.192;2023-03-25T06:28:24;98079.88;;;9.47
35960;BMP280;22043;50.970;7.192;2023-03-25T06:30:50;98081.44;;;9.48
35960;BMP280;22043;50.970;7.192;2023-03-25T06:33:17;98079.88;;;9.47
35960;BMP280;22043;50.970;7.192;2023-03-25T06:35:46;98077.16;;;9.47
35960;BMP280;22043;50.970;7.192;2023-03-25T06:38:18;98075.63;;;9.46
35960;BMP280;22043;50.970;7.192;2023-03-25T06:41:01;98088.47;;;9.45
35960;BMP280;22043;50.970;7.192;2023-03-25T06:43:26;98081.84;;;9.46
35960;BMP280;22043;50.970;7.192;2023-03-25T06:46:30;98074.88;;;9.45
35960;BMP280;22043;50.970;7.192;2023-03-25T06:49:15;98083.72;;;9.49
35960;BMP280;22043;50.970;7.192;2023-03-25T06:51:41;98079.13;;;9.46
35960;BMP280;22043;50.970;7.192;2023-03-25T06:54:06;98077.50;;;9.49
35960;BMP280;22043;50.970;7.192;2023-03-25T06:56:32;98086.88;;;9.48
35960;BMP280;22043;50.970;7.192;2023-03-25T06:58:57;98083.03;;;9.45
35960;BMP280;22043;50.970;7.192;2023-03-25T07:01:22;98090.00;;;9.46
35960;BMP280;22043;50.970;7.192;2023-03-25T07:03:48;98088.41;;;9.49
35960;BMP280;22043;50.970;7.192;2023-03-25T07:06:16;98085.25;;;9.50
35960;BMP280;22043;50.970;7.192;2023-03-25T07:08:42;98086.34;;;9.53
35960;BMP280;22043;50.970;7.192;2023-03-25T07:11:09;98082.00;;;9.56
35960;BMP280;22043;50.970;7.192;2023-03-25T07:13:36;98087.03;;;9.57
35960;BMP280;22043;50.970;7.192;2023-03-25T07:16:02;98091.25;;;9.58
35960;BMP280;22043;50.970;7.192;2023-03-25T07:18:27;98098.66;;;9.58
35960;BMP280;22043;50.970;7.192;2023-03-25T07:20:53;98099.41;;;9.58
35960;BMP280;22043;50.970;7.192;2023-03-25T07:23:18;98109.53;;;9.58
35960;BMP280;22043;50.970;7.192;2023-03-25T07:25:44;98100.69;;;9.53
35960;BMP280;22043;50.970;7.192;2023-03-25T07:28:09;98116.25;;;9.53
35960;BMP280;22043;50.970;7.192;2023-03-25T07:30:41;98117.88;;;9.50
35960;BMP280;22043;50.970;7.192;2023-03-25T07:33:06;98124.06;;;9.51
35960;BMP280;22043;50.970;7.192;2023-03-25T07:35:31;98132.56;;;9.53
35960;BMP280;22043;50.970;7.192;2023-03-25T07:37:57;98134.09;;;9.54
35960;BMP280;22043;50.970;7.192;2023-03-25T07:40:22;98135.53;;;9.59
35960;BMP280;22043;50.970;7.192;2023-03-25T07:42:48;98141.63;;;9.63
35960;BMP280;22043;50.970;7.192;2023-03-25T07:45:20;98140.81;;;9.66
35960;BMP280;22043;50.970;7.192;2023-03-25T07:47:48;98136.88;;;9.67
35960;BMP280;22043;50.970;7.192;2023-03-25T07:50:16;98130.59;;;9.70
35960;BMP280;22043;50.970;7.192;2023-03-25T07:52:42;98131.25;;;9.74
35960;BMP280;22043;50.970;7.192;2023-03-25T07:55:08;98131.94;;;9.78
35960;BMP280;22043;50.970;7.192;2023-03-25T07:57:34;98139.34;;;9.77
35960;BMP280;22043;50.970;7.192;2023-03-25T08:00:02;98138.16;;;9.78
35960;BMP280;22043;50.970;7.192;2023-03-25T08:02:37;98139.75;;;9.76
35960;BMP280;22043;50.970;7.192;2023-03-25T08:05:04;98150.22;;;9.77
35960;BMP280;22043;50.970;7.192;2023-03-25T08:07:30;98149.81;;;9.79
35960;BMP280;22043;50.970;7.192;2023-03-25T08:09:56;98143.50;;;9.82
35960;BMP280;22043;50.970;7.192;2023-03-25T08:12:21;98148.50;;;9.84
35960;BMP280;22043;50.970;7.192;2023-03-25T08:14:46;98163.56;;;9.88
35960;BMP280;22043;50.970;7.192;2023-03-25T08:17:15;98158.75;;;9.92
35960;BMP280;22043;50.970;7.192;2023-03-25T08:19:41;98170.34;;;9.96
35960;BMP280;22043;50.970;7.192;2023-03-25T08:22:06;98173.38;;;9.98
35960;BMP280;22043;50.970;7.192;2023-03-25T08:24:32;98162.31;;;10.05
35960;BMP280;22043;50.970;7.192;2023-03-25T08:26:58;98165.34;;;10.07
35960;BMP280;22043;50.970;7.192;2023-03-25T08:29:27;98175.03;;;10.08
35960;BMP280;22043;50.970;7.192;2023-03-25T08:31:54;98165.69;;;10.09
35960;BMP280;22043;50.970;7.192;2023-03-25T08:34:20;98166.81;;;10.12
35960;BMP280;22043;50.970;7.192;2023-03-25T08:36:46;98168.22;;;10.17
35960;BMP280;22043;50.970;7.192;2023-03-25T08:39:13;98172.81;;;10.20
35960;BMP280;22043;50.970;7.192;2023-03-25T08:41:42;98175.53;;;10.20
35960;BMP280;22043;50.970;7.192;2023-03-25T08:44:08;98178.59;;;10.22
35960;BMP280;22043;50.970;7.192;2023-03-25T08:46:33;98164.53;;;10.23
35960;BMP280;22043;50.970;7.192;2023-03-25T08:48:59;98175.75;;;10.25
35960;BMP280;22043;50.970;7.192;2023-03-25T08:51:25;98167.41;;;10.32
35960;BMP280;22043;50.970;7.192;2023-03-25T08:53:50;98169.34;;;10.32
35960;BMP280;22043;50.970;7.192;2023-03-25T08:56:16;98160.00;;;10.33
35960;BMP280;22043;50.970;7.192;2023-03-25T08:58:41;98161.88;;;10.36
35960;BMP280;22043;50.970;7.192;2023-03-25T09:01:07;98150.41;;;10.41
35960;BMP280;22043;50.970;7.192;2023-03-25T09:03:33;98158.06;;;10.46
35960;BMP280;22043;50.970;7.192;2023-03-25T09:06:03;98155.34;;;10.46
35960;BMP280;22043;50.970;7.192;2023-03-25T09:08:29;98152.41;;;10.53
35960;BMP280;22043;50.970;7.192;2023-03-25T09:10:55;98158.94;;;10.56
35960;BMP280;22043;50.970;7.192;2023-03-25T09:13:20;98153.28;;;10.63
35960;BMP280;22043;50.970;7.192;2023-03-25T09:15:45;98152.81;;;10.64
35960;BMP280;22043;50.970;7.192;2023-03-25T09:18:11;98147.28;;;10.68
35960;BMP280;22043;50.970;7.192;2023-03-25T09:20:36;98156.47;;;10.74
35960;BMP280;22043;50.970;7.192;2023-03-25T09:23:02;98151.13;;;10.71
35960;BMP280;22043;50.970;7.192;2023-03-25T09:25:28;98156.22;;;10.69
35960;BMP280;22043;50.970;7.192;2023-03-25T09:27:54;98156.66;;;10.67
35960;BMP280;22043;50.970;7.192;2023-03-25T09:30:20;98163.06;;;10.60
35960;BMP280;22043;50.970;7.192;2023-03-25T09:32:45;98159.59;;;10.60
35960;BMP280;22043;50.970;7.192;2023-03-25T09:35:10;98162.31;;;10.60
35960;BMP280;22043;50.970;7.192;2023-03-25T09:37:36;98159.59;;;10.60
35960;BMP280;22043;50.970;7.192;2023-03-25T09:40:02;98154.91;;;10.60
35960;BMP280;22043;50.970;7.192;2023-03-25T09:45:31;98169.09;;;10.68
35960;BMP280;22043;50.970;7.192;2023-03-25T09:48:02;98159.63;;;10.73
35960;BMP280;22043;50.970;7.192;2023-03-25T09:50:30;98154.94;;;10.73
35960;BMP280;22043;50.970;7.192;2023-03-25T09:53:04;98166.06;;;10.79
35960;BMP280;22043;50.970;7.192;2023-03-25T09:55:35;98163.63;;;10.81
35960;BMP280;22043;50.970;7.192;2023-03-25T09:58:35;98171.31;;;10.86
35960;BMP280;22043;50.970;7.192;2023-03-25T10:04:09;98175.19;;;10.85
35960;BMP280;22043;50.970;7.192;2023-03-25T10:06:23;98168.56;;;10.86
35960;BMP280;22043;50.970;7.192;2023-03-25T10:09:00;98183.84;;;10.96
35960;BMP280;22043;50.970;7.192;2023-03-25T10:17:16;98173.69;;;11.09
35960;BMP280;22043;50.970;7.192;2023-03-25T10:22:27;98170.75;;;11.04
35960;BMP280;22043;50.970;7.192;2023-03-25T10:25:01;98178.47;;;11.05
35960;BMP280;22043;50.970;7.192;2023-03-25T10:27:37;98176.50;;;11.06
35960;BMP280;22043;50.970;7.192;2023-03-25T10:30:26;98183.91;;;11.05
35960;BMP280;22043;50.970;7.192;2023-03-25T10:32:56;98170.28;;;11.05
35960;BMP280;22043;50.970;7.192;2023-03-25T10:35:39;98180.44;;;11.05
35960;BMP280;22043;50.970;7.192;2023-03-25T10:38:14;98170.84;;;11.00
35960;BMP280;22043;50.970;7.192;2023-03-25T10:40:45;98179.56;;;11.08
35960;BMP280;22043;50.970;7.192;2023-03-25T10:43:28;98179.00;;;11.13
35960;BMP280;22043;50.970;7.192;2023-03-25T10:46:07;98182.84;;;11.15
35960;BMP280;22043;50.970;7.192;2023-03-25T10:48:35;98200.50;;;11.24
35960;BMP280;22043;50.970;7.192;2023-03-25T10:51:13;98203.56;;;11.26
35960;BMP280;22043;50.970;7.192;2023-03-25T10:53:41;98207.25;;;11.32
35960;BMP280;22043;50.970;7.192;2023-03-25T10:56:11;98202.13;;;11.34
35960;BMP280;22043;50.970;7.192;2023-03-25T10:58:39;98204.97;;;11.43
35960;BMP280;22043;50.970;7.192;2023-03-25T11:01:16;98206.56;;;11.53
35960;BMP280;22043;50.970;7.192;2023-03-25T11:03:43;98206.97;;;11.64
35960;BMP280;22043;50.970;7.192;2023-03-25T11:06:33;98192.97;;;11.75
35960;BMP280;22043;50.970;7.192;2023-03-25T11:11:33;98199.97;;;11.76
35960;BMP280;22043;50.970;7.192;2023-03-25T11:13:59;98195.38;;;11.73
35960;BMP280;22043;50.970;7.192;2023-03-25T11:16:25;98194.41;;;11.79
35960;BMP280;22043;50.970;7.192;2023-03-25T11:18:55;98209.34;;;11.75
35960;BMP280;22043;50.970;7.192;2023-03-25T11:21:24;98199.88;;;11.67
35960;BMP280;22043;50.970;7.192;2023-03-25T11:23:51;98203.19;;;11.62
35960;BMP280;22043;50.970;7.192;2023-03-25T11:26:25;98209.44;;;11.49
35960;BMP280;22043;50.970;7.192;2023-03-25T11:28:55;98205.69;;;11.43
35960;BMP280;22043;50.970;7.192;2023-03-25T11:31:27;98203.66;;;11.35
35960;BMP280;22043;50.970;7.192;2023-03-25T11:36:53;98203.75;;;11.31
35960;BMP280;22043;50.970;7.192;2023-03-25T11:41:47;98193.34;;;11.64
35960;BMP280;22043;50.970;7.192;2023-03-25T11:44:29;98198.84;;;11.86
35960;BMP280;22043;50.970;7.192;2023-03-25T11:46:59;98201.19;;;11.97
35960;BMP280;22043;50.970;7.192;2023-03-25T11:49:26;98184.25;;;12.02
35960;BMP280;22043;50.970;7.192;2023-03-25T11:51:59;98198.78;;;11.99
35960;BMP280;22043;50.970;7.192;2023-03-25T11:54:26;98184.50;;;11.95
35960;BMP280;22043;50.970;7.192;2023-03-25T11:56:53;98188.47;;;11.81
35960;BMP280;22043;50.970;7.192;2023-03-25T11:59:26;98194.81;;;11.78
35960;BMP280;22043;50.970;7.192;2023-03-25T12:02:08;98194.06;;;11.77
35960;BMP280;22043;50.970;7.192;2023-03-25T12:07:20;98187.59;;;11.84
35960;BMP280;22043;50.970;7.192;2023-03-25T12:09:54;98183.53;;;11.89
35960;BMP280;22043;50.970;7.192;2023-03-25T12:23:02;98175.66;;;11.56
35960;BMP280;22043;50.970;7.192;2023-03-25T12:30:56;98171.50;;;11.64
35960;BMP280;22043;50.970;7.192;2023-03-25T12:42:31;98157.03;;;11.76
35960;BMP280;22043;50.970;7.192;2023-03-25T12:47:37;98150.75;;;11.89
35960;BMP280;22043;50.970;7.192;2023-03-25T12:52:55;98155.41;;;12.01
35960;BMP280;22043;50.970;7.192;2023-03-25T13:00:46;98150.47;;;12.40
35960;BMP280;22043;50.970;7.192;2023-03-25T13:03:26;98140.22;;;12.53
35960;BMP280;22043;50.970;7.192;2023-03-25T13:06:02;98134.75;;;12.84
35960;BMP280;22043;50.970;7.192;2023-03-25T13:08:43;98130.19;;;12.90
35960;BMP280;22043;50.970;7.192;2023-03-25T13:11:23;98122.44;;;12.88
35960;BMP280;22043;50.970;7.192;2023-03-25T13:13:52;98133.19;;;12.83
35960;BMP280;22043;50.970;7.192;2023-03-25T13:16:21;98146.75;;;12.86
35960;BMP280;22043;50.970;7.192;2023-03-25T13:19:02;98127.78;;;13.01
35960;BMP280;22043;50.970;7.192;2023-03-25T13:21:35;98129.78;;;13.10
35960;BMP280;22043;50.970;7.192;2023-03-25T13:24:18;98147.19;;;12.94
35960;BMP280;22043;50.970;7.192;2023-03-25T13:26:48;98140.66;;;12.91
35960;BMP280;22043;50.970;7.192;2023-03-25T13:29:27;98145.84;;;12.89
35960;BMP280;22043;50.970;7.192;2023-03-25T13:31:55;98125.78;;;12.83
35960;BMP280;22043;50.970;7.192;2023-03-25T13:34:29;98131.38;;;12.71
35960;BMP280;22043;50.970;7.192;2023-03-25T13:42:19;98119.84;;;12.45
35960;BMP280;22043;50.970;7.192;2023-03-25T13:44:47;98111.59;;;12.35
35960;BMP280;22043;50.970;7.192;2023-03-25T13:47:29;98101.72;;;12.29
35960;BMP280;22043;50.970;7.192;2023-03-25T13:50:07;98115.75;;;12.18
35960;BMP280;22043;50.970;7.192;2023-03-25T13:52:41;98128.78;;;12.14
35960;BMP280;22043;50.970;7.192;2023-03-25T13:55:15;98132.06;;;12.00
35960;BMP280;22043;50.970;7.192;2023-03-25T14:03:33;98210.41;;;11.43
35960;BMP280;22043;50.970;7.192;2023-03-25T14:09:21;98223.06;;;10.73
35960;BMP280;22043;50.970;7.192;2023-03-25T14:12:07;98247.00;;;10.24
35960;BMP280;22043;50.970;7.192;2023-03-25T14:14:37;98243.97;;;10.05
35960;BMP280;22043;50.970;7.192;2023-03-25T14:17:04;98251.66;;;9.94
35960;BMP280;22043;50.970;7.192;2023-03-25T14:19:38;98250.72;;;9.85
35960;BMP280;22043;50.970;7.192;2023-03-25T14:22:16;98247.13;;;9.71
35960;BMP280;22043;50.970;7.192;2023-03-25T14:24:43;98233.13;;;9.73
35960;BMP280;22043;50.970;7.192;2023-03-25T14:30:01;98242.38;;;9.75
35960;BMP280;22043;50.970;7.192;2023-03-25T14:32:33;98224.75;;;9.80
35960;BMP280;22043;50.970;7.192;2023-03-25T14:43:36;98222.47;;;10.24
35960;BMP280;22043;50.970;7.192;2023-03-25T14:53:54;98227.34;;;10.45
35960;BMP280;22043;50.970;7.192;2023-03-25T14:56:23;98207.22;;;10.55
35960;BMP280;22043;50.970;7.192;2023-03-25T14:58:52;98205.25;;;10.56
35960;BMP280;22043;50.970;7.192;2023-03-25T15:01:20;98209.41;;;10.60
35960;BMP280;22043;50.970;7.192;2023-03-25T15:03:48;98202.78;;;10.61
35960;BMP280;22043;50.970;7.192;2023-03-25T15:06:17;98194.69;;;10.58
35960;BMP280;22043;50.970;7.192;2023-03-25T15:08:55;98205.16;;;10.59
35960;BMP280;22043;50.970;7.192;2023-03-25T15:11:30;98204.94;;;10.67
35960;BMP280;22043;50.970;7.192;2023-03-25T15:13:59;98204.75;;;10.74
35960;BMP280;22043;50.970;7.192;2023-03-25T15:19:17;98204.13;;;10.95
35960;BMP280;22043;50.970;7.192;2023-03-25T15:24:34;98192.97;;;11.02
35960;BMP280;22043;50.970;7.192;2023-03-25T15:29:50;98200.72;;;10.91
35960;BMP280;22043;50.970;7.192;2023-03-25T15:33:00;98197.66;;;10.76
35960;BMP280;22043;50.970;7.192;2023-03-25T15:38:50;98210.13;;;10.35
35960;BMP280;22043;50.970;7.192;2023-03-25T15:49:12;98213.19;;;9.92
35960;BMP280;22043;50.970;7.192;2023-03-25T16:00:26;98210.91;;;9.91
35960;BMP280;22043;50.970;7.192;2023-03-25T16:03:21;98209.63;;;9.95
35960;BMP280;22043;50.970;7.192;2023-03-25T16:05:59;98204.78;;;10.03
35960;BMP280;22043;50.970;7.192;2023-03-25T16:16:44;98199.22;;;10.06
35960;BMP280;22043;50.970;7.192;2023-03-25T16:22:28;98184.59;;;10.00
35960;BMP280;22043;50.970;7.192;2023-03-25T16:25:03;98192.25;;;10.05
35960;BMP280;22043;50.970;7.192;2023-03-25T16:27:35;98201.19;;;10.06
35960;BMP280;22043;50.970;7.192;2023-03-25T16:30:17;98200.75;;;10.07
35960;BMP280;22043;50.970;7.192;2023-03-25T16:32:43;98219.16;;;10.03
35960;BMP280;22043;50.970;7.192;2023-03-25T16:35:20;98226.63;;;9.99
35960;BMP280;22043;50.970;7.192;2023-03-25T20:14:12;98353.81;;;8.20
35960;BMP280;22043;50.970;7.192;2023-03-25T20:19:19;98351.88;;;8.21
35960;BMP280;22043;50.970;7.192;2023-03-25T20:21:44;98341.69;;;8.25
35960;BMP280;22043;50.970;7.192;2023-03-25T20:24:10;98341.81;;;8.21
35960;BMP280;22043;50.970;7.192;2023-03-25T20:26:35;98344.91;;;8.20
35960;BMP280;22043;50.970;7.192;2023-03-25T20:29:01;98339.94;;;8.14
35960;BMP280;22043;50.970;7.192;2023-03-25T20:31:26;98339.09;;;8.21
35960;BMP280;22043;50.970;7.192;2023-03-25T20:33:52;98345.22;;;8.25
35960;BMP280;22043;50.970;7.192;2023-03-25T20:36:18;98339.44;;;8.23
35960;BMP280;22043;50.970;7.192;2023-03-25T20:38:45;98345.56;;;8.27
35960;BMP280;22043;50.970;7.192;2023-03-25T20:41:14;98348.69;;;8.26
35960;BMP280;22043;50.970;7.192;2023-03-25T20:43:40;98343.34;;;8.22
35960;BMP280;22043;50.970;7.192;2023-03-25T20:46:05;98339.44;;;8.23
35960;BMP280;22043;50.970;7.192;2023-03-25T20:48:31;98338.25;;;8.24
35960;BMP280;22043;50.970;7.192;2023-03-25T20:50:59;98339.47;;;8.20
35960;BMP280;22043;50.970;7.192;2023-03-25T20:53:26;98331.75;;;8.18
35960;BMP280;22043;50.970;7.192;2023-03-25T20:55:55;98342.97;;;8.20